createdAt,value
2022-09-24T00:55:05.129Z,66.66
2022-09-24T01:01:41.752Z,66.91
2022-09-24T01:04:56.627Z,66.84
2022-09-24T01:11:33.259Z,67.25
2022-09-24T01:14:56.147Z,67.33
2022-09-24T01:18:15.717Z,67.07
2022-09-24T01:21:39.619Z,67.11
2022-09-24T01:34:47.753Z,67.33
2022-09-24T01:52:09.725Z,68.00
2022-09-24T01:58:59.734Z,68.29
2022-09-24T02:01:33.064Z,68.08
2022-09-24T02:04:07.201Z,68.31
2022-09-24T02:06:41.491Z,68.31
2022-09-24T02:09:30.366Z,68.37
2022-09-24T02:12:02.767Z,68.29
2022-09-24T02:14:33.934Z,68.67
2022-09-24T02:17:04.473Z,68.72
2022-09-24T02:19:37.295Z,68.34
2022-09-24T02:22:09.449Z,68.39
2022-09-24T02:24:46.549Z,68.42
2022-09-24T02:27:14.555Z,68.25
2022-09-24T02:29:42.211Z,68.57
2022-09-24T02:32:13.589Z,68.53
2022-09-24T02:34:46.329Z,68.74
2022-09-24T02:37:15.667Z,68.39
2022-09-24T02:39:43.631Z,68.35
2022-09-24T02:42:15.146Z,69.03
2022-09-24T02:44:42.711Z,69.07
2022-09-24T02:47:10.505Z,69.06
2022-09-24T02:49:37.992Z,68.87
2022-09-24T02:52:05.646Z,68.62
2022-09-24T02:54:34.545Z,69.44
2022-09-24T02:57:02.028Z,68.81
2022-09-24T02:59:29.518Z,68.66
2022-09-24T03:01:57.178Z,69.24
2022-09-24T03:04:25.330Z,69.29
2022-09-24T03:06:52.823Z,69.07
2022-09-24T03:09:20.348Z,68.72
2022-09-24T03:11:50.133Z,68.67
2022-09-24T03:14:17.650Z,68.09
2022-09-24T03:16:45.258Z,67.76
2022-09-24T03:19:12.718Z,68.08
2022-09-24T03:21:40.222Z,68.06
2022-09-24T03:24:07.829Z,67.72
2022-09-24T03:26:35.396Z,67.58
2022-09-24T03:29:04.293Z,67.58
2022-09-24T03:31:30.879Z,67.89
2022-09-24T03:33:58.570Z,67.67
2022-09-24T03:36:27.092Z,67.55
2022-09-24T03:38:56.841Z,67.60
2022-09-24T03:41:26.133Z,67.54
2022-09-24T03:43:53.657Z,67.62
2022-09-24T03:46:27.717Z,67.80
2022-09-24T03:48:56.143Z,68.30
2022-09-24T03:51:24.391Z,67.97
2022-09-24T03:53:51.868Z,68.12
2022-09-24T03:56:19.350Z,68.21
2022-09-24T03:58:47.603Z,68.20
2022-09-24T04:01:21.756Z,68.11
2022-09-24T04:03:51.190Z,68.17
2022-09-24T04:06:24.791Z,68.08
2022-09-24T04:08:53.732Z,68.19
2022-09-24T04:11:21.276Z,68.29
2022-09-24T04:13:48.883Z,68.35
2022-09-24T04:16:16.765Z,68.28
2022-09-24T04:18:44.425Z,68.38
2022-09-24T04:21:13.386Z,68.67
2022-09-24T04:23:40.935Z,68.45
2022-09-24T04:26:08.482Z,68.61
2022-09-24T04:28:36.022Z,68.50
2022-09-24T04:31:03.662Z,68.63
2022-09-24T04:33:31.298Z,68.54
2022-09-24T04:35:58.840Z,68.63
2022-09-24T04:38:37.331Z,68.64
2022-09-24T04:41:06.989Z,68.99
2022-09-24T04:43:34.864Z,68.77
2022-09-24T04:46:02.762Z,68.46
2022-09-24T04:48:30.825Z,68.36
2022-09-24T04:50:58.584Z,68.32
2022-09-24T04:53:27.701Z,68.46
2022-09-24T04:55:55.309Z,68.63
2022-09-24T04:58:24.991Z,68.89
2022-09-24T05:00:53.274Z,68.74
2022-09-24T05:03:21.228Z,68.87
2022-09-24T05:05:50.946Z,68.68
2022-09-24T05:11:13.477Z,69.07
2022-09-24T05:13:42.608Z,69.12
2022-09-24T05:16:11.563Z,69.27
2022-09-24T05:18:41.712Z,69.35
2022-09-24T05:21:10.941Z,69.30
2022-09-24T05:23:39.087Z,69.42
2022-09-24T05:26:24.333Z,69.49
2022-09-24T05:28:53.711Z,69.45
2022-09-24T05:31:21.347Z,69.24
2022-09-24T05:33:49.370Z,69.26
2022-09-24T05:36:16.960Z,69.17
2022-09-24T05:38:44.673Z,69.32
2022-09-24T05:41:12.445Z,69.10
2022-09-24T05:43:41.157Z,69.28
2022-09-24T05:46:10.287Z,69.44
2022-09-24T05:48:38.735Z,69.11
2022-09-24T05:51:08.378Z,68.82
2022-09-24T05:53:37.376Z,68.52
2022-09-24T05:56:04.905Z,68.99
2022-09-24T05:58:33.992Z,68.63
2022-09-24T06:01:03.046Z,68.87
2022-09-24T06:03:36.271Z,69.93
2022-09-24T06:06:08.428Z,68.91
2022-09-24T06:08:36.252Z,69.37
2022-09-24T06:11:08.894Z,70.37
2022-09-24T06:22:20.757Z,68.52
2022-09-24T06:24:52.133Z,68.92
2022-09-24T06:27:22.256Z,68.42
2022-09-24T06:29:51.717Z,68.12
2022-09-24T06:32:39.297Z,67.98
2022-09-24T06:35:09.195Z,67.64
2022-09-24T06:37:37.966Z,67.66
2022-09-24T06:40:06.742Z,67.63
2022-09-24T06:42:34.795Z,67.30
2022-09-24T06:47:37.542Z,68.05
2022-09-24T06:50:06.142Z,68.45
2022-09-24T06:52:34.999Z,68.95
2022-09-24T06:55:02.512Z,68.46
2022-09-24T06:57:31.708Z,68.59
2022-09-24T06:59:59.445Z,68.10
2022-09-24T07:02:27.267Z,67.79
2022-09-24T07:05:06.250Z,67.81
2022-09-24T07:07:35.647Z,67.84
2022-09-24T07:10:06.491Z,67.79
2022-09-24T07:12:35.524Z,67.60
2022-09-24T07:15:04.867Z,67.70
2022-09-24T07:17:34.003Z,67.66
2022-09-24T07:20:02.095Z,67.27
2022-09-24T07:22:29.751Z,67.35
2022-09-24T07:24:58.699Z,67.06
2022-09-24T07:27:26.687Z,67.19
2022-09-24T07:29:54.605Z,67.15
2022-09-24T07:32:25.062Z,66.97
2022-09-24T07:34:57.216Z,66.69
2022-09-24T07:37:25.013Z,66.58
2022-09-24T07:39:52.721Z,66.74
2022-09-24T07:42:21.747Z,66.89
2022-09-24T07:44:49.266Z,66.42
2022-09-24T07:47:16.894Z,66.34
2022-09-24T07:49:44.569Z,66.07
2022-09-24T07:52:12.462Z,65.72
2022-09-24T07:54:39.949Z,65.53
2022-09-24T07:57:12.002Z,65.46
2022-09-24T07:59:41.484Z,65.19
2022-09-24T08:02:16.161Z,64.73
2022-09-24T08:38:22.532Z,66.58
2022-09-24T08:47:32.367Z,66.63
2022-09-24T08:50:17.628Z,66.80
2022-09-24T08:53:26.971Z,67.36
2022-09-24T09:04:19.637Z,67.67
2022-09-24T09:10:45.149Z,68.10
2022-09-24T09:14:14.457Z,67.54
2022-09-24T09:28:03.039Z,67.90
2022-09-24T09:30:55.148Z,67.63
2022-09-24T09:33:41.667Z,68.02
2022-09-24T09:36:47.147Z,68.45
2022-09-24T09:40:03.980Z,67.55
2022-09-24T09:42:52.467Z,66.75
2022-09-24T09:49:06.496Z,65.97
2022-09-24T09:51:47.091Z,66.49
2022-09-24T11:14:31.123Z,64.04
2022-09-24T12:00:14.074Z,63.29
2022-09-24T12:02:57.601Z,63.33
2022-09-24T12:15:29.457Z,62.61
2022-09-24T12:18:14.927Z,62.32
2022-09-24T12:21:07.430Z,61.93
2022-09-24T12:23:41.792Z,62.14
2022-09-24T12:26:17.601Z,61.27
2022-09-24T12:29:18.812Z,61.22
2022-09-24T12:35:27.114Z,60.54
2022-09-24T12:38:06.185Z,60.47
2022-09-24T12:44:29.869Z,60.87
2022-09-24T12:51:21.363Z,61.55
2022-09-24T12:54:13.000Z,61.31
2022-09-24T12:57:09.084Z,61.02
2022-09-24T12:59:49.275Z,61.83
2022-09-24T13:02:25.552Z,61.77
2022-09-24T13:05:18.983Z,61.09
2022-09-24T13:08:12.396Z,61.20
2022-09-24T13:11:01.166Z,61.05
2022-09-24T13:13:33.542Z,61.47
2022-09-24T13:16:12.193Z,61.71
2022-09-24T13:18:59.970Z,62.07
2022-09-24T14:17:57.152Z,64.21
2022-09-24T15:02:37.013Z,67.70
2022-09-24T15:08:32.006Z,68.28
2022-09-24T15:11:03.997Z,67.82
2022-09-24T15:13:33.572Z,68.15
2022-09-24T15:16:06.784Z,68.76
2022-09-24T15:18:36.454Z,69.27
2022-09-24T15:21:08.411Z,69.27
2022-09-24T15:23:36.389Z,69.30
2022-09-24T15:26:04.949Z,69.44
2022-09-24T15:28:33.925Z,69.80
2022-09-24T15:31:01.571Z,69.92
2022-09-24T15:33:29.464Z,69.98
2022-09-24T15:35:58.909Z,70.53
2022-09-24T15:38:27.130Z,70.61
2022-09-24T15:40:55.242Z,70.95
2022-09-24T15:43:25.155Z,71.25
2022-09-24T15:45:53.078Z,71.38
2022-09-24T15:48:20.934Z,71.57
2022-09-24T15:50:52.051Z,71.82
2022-09-24T15:53:23.759Z,72.06
2022-09-24T15:55:56.529Z,72.35
2022-09-24T15:58:24.267Z,72.38
2022-09-24T16:00:52.513Z,72.16
2022-09-24T16:03:22.933Z,72.80
2022-09-24T16:05:50.528Z,73.02
2022-09-24T16:08:18.763Z,72.97
2022-09-24T16:10:48.130Z,72.95
2022-09-24T16:13:16.762Z,73.15
2022-09-24T16:15:45.346Z,73.25
2022-09-24T16:18:15.150Z,73.67
2022-09-24T16:20:45.276Z,73.97
2022-09-24T16:23:15.139Z,74.36
2022-09-24T16:25:43.315Z,74.63
2022-09-24T16:28:12.093Z,74.32
2022-09-24T16:30:39.521Z,73.96
2022-09-24T16:33:07.300Z,73.90
2022-09-24T16:35:34.831Z,73.82
2022-09-24T16:38:02.343Z,73.80
2022-09-24T16:40:29.813Z,73.78
2022-09-24T16:43:00.624Z,74.43
2022-09-24T16:45:29.509Z,74.49
2022-09-24T16:47:56.982Z,74.67
2022-09-24T16:50:24.529Z,74.44
2022-09-24T16:52:54.822Z,74.75
2022-09-24T16:55:24.092Z,74.81
2022-09-24T16:57:52.302Z,74.73
2022-09-24T17:00:20.149Z,74.99
2022-09-24T17:02:48.963Z,74.98
2022-09-24T17:05:16.616Z,75.00
2022-09-24T17:07:44.131Z,75.03
2022-09-24T17:10:14.156Z,75.23
2022-09-24T17:12:42.855Z,75.49
2022-09-24T17:15:10.861Z,74.92
2022-09-24T17:17:49.079Z,74.86
2022-09-24T17:20:20.297Z,74.72
2022-09-24T17:22:55.041Z,75.16
2022-09-24T17:25:22.703Z,74.75
2022-09-24T17:27:50.189Z,74.81
2022-09-24T17:30:17.665Z,74.85
2022-09-24T17:32:45.124Z,74.80
2022-09-24T17:35:13.472Z,74.70
2022-09-24T17:37:42.820Z,74.83
2022-09-24T17:40:11.001Z,74.79
2022-09-24T17:42:38.657Z,74.80
2022-09-24T17:45:07.554Z,75.09
2022-09-24T17:47:48.947Z,74.92
2022-09-24T17:50:16.700Z,75.11
2022-09-24T17:52:45.492Z,75.02
2022-09-24T17:55:13.052Z,75.32
2022-09-24T17:57:40.581Z,75.51
2022-09-24T18:00:09.536Z,75.30
2022-09-24T18:02:36.984Z,75.52
2022-09-24T18:05:04.619Z,75.69
2022-09-24T18:07:32.029Z,75.58
2022-09-24T18:10:05.497Z,76.42
2022-09-24T18:18:03.067Z,76.24
2022-09-24T18:20:31.819Z,76.12
2022-09-24T18:22:59.388Z,76.29
2022-09-24T18:25:28.393Z,76.26
2022-09-24T18:28:00.775Z,75.64
2022-09-24T18:30:28.395Z,75.61
2022-09-24T18:32:55.894Z,75.99
2022-09-24T18:35:23.400Z,76.20
2022-09-24T18:37:51.024Z,76.17
2022-09-24T18:40:18.664Z,76.25
2022-09-24T18:42:47.488Z,76.54
2022-09-24T18:45:14.940Z,76.64
2022-09-24T18:47:42.435Z,76.69
2022-09-24T18:50:10.464Z,76.90
2022-09-24T18:52:37.947Z,76.36
2022-09-24T18:55:06.730Z,76.06
2022-09-24T18:57:34.248Z,75.90
2022-09-24T19:00:03.219Z,75.98
2022-09-24T19:02:31.368Z,75.94
2022-09-24T19:04:59.013Z,76.01
2022-09-24T19:07:26.552Z,75.71
2022-09-24T19:09:54.015Z,75.77
2022-09-24T19:12:21.527Z,75.76
2022-09-24T19:14:49.688Z,75.50
2022-09-24T19:17:18.857Z,75.58
2022-09-24T19:19:52.161Z,75.98
2022-09-24T19:22:19.998Z,75.70
2022-09-24T19:24:47.879Z,75.91
2022-09-24T19:27:15.354Z,75.89
2022-09-24T19:32:21.515Z,76.24
2022-09-24T19:37:24.599Z,75.53
2022-09-24T19:39:52.072Z,75.37
2022-09-24T19:42:19.505Z,75.15
2022-09-24T19:44:46.980Z,75.25
2022-09-24T19:47:14.413Z,75.26
2022-09-24T19:49:43.223Z,75.41
2022-09-24T19:52:10.653Z,75.02
2022-09-24T19:54:38.055Z,74.99
2022-09-24T19:57:05.698Z,75.30
2022-09-24T19:59:33.130Z,75.25
2022-09-24T20:02:00.681Z,75.54
2022-09-24T20:04:28.574Z,75.57
2022-09-24T20:07:02.306Z,76.02
2022-09-24T20:09:33.007Z,75.45
2022-09-24T20:12:00.937Z,75.54
2022-09-24T20:14:33.433Z,75.62
2022-09-24T20:17:01.641Z,75.43
2022-09-24T20:19:29.271Z,75.78
2022-09-24T20:21:58.974Z,75.98
2022-09-24T20:24:26.790Z,75.82
2022-09-24T20:27:14.540Z,75.93
2022-09-24T20:29:44.497Z,75.93
2022-09-24T20:32:15.588Z,75.95
2022-09-24T20:34:44.004Z,76.05
2022-09-24T20:37:13.986Z,76.01
2022-09-24T20:39:41.743Z,75.70
2022-09-24T20:42:09.922Z,75.48
2022-09-24T20:44:37.794Z,75.57
2022-09-24T20:47:05.769Z,75.92
2022-09-24T20:49:34.826Z,76.14
2022-09-24T20:52:03.339Z,76.42
2022-09-24T20:54:33.638Z,76.30
2022-09-24T20:57:01.350Z,76.47
2022-09-24T20:59:30.672Z,76.34
2022-09-24T21:01:58.424Z,76.31
2022-09-24T21:04:27.037Z,76.41
2022-09-24T21:06:55.597Z,76.26
2022-09-24T21:09:23.700Z,76.38
2022-09-24T21:11:54.542Z,76.46
2022-09-24T21:14:22.780Z,76.43
2022-09-24T21:16:50.533Z,76.54
2022-09-24T21:19:18.319Z,76.76
2022-09-24T21:21:46.998Z,76.90
2022-09-24T21:24:16.550Z,76.74
2022-09-24T21:26:45.719Z,76.83
2022-09-24T21:29:17.511Z,76.88
2022-09-24T21:31:46.846Z,76.84
2022-09-24T21:34:16.544Z,76.85
2022-09-24T21:36:46.565Z,76.83
2022-09-24T21:39:16.805Z,76.81
2022-09-24T21:41:48.230Z,76.95
2022-09-24T21:44:19.509Z,77.00
2022-09-24T21:46:47.872Z,77.23
2022-09-24T21:49:17.132Z,77.13
2022-09-24T21:51:45.578Z,77.21
2022-09-24T21:54:15.491Z,77.17
2022-09-24T21:56:43.956Z,77.27
2022-09-24T21:59:33.184Z,77.20
2022-09-24T22:02:03.323Z,77.39
2022-09-24T22:04:32.592Z,77.51
2022-09-24T22:07:00.533Z,77.36
2022-09-24T22:09:29.084Z,77.10
2022-09-24T22:11:58.015Z,77.25
2022-09-24T22:14:26.145Z,77.01
2022-09-24T22:16:56.226Z,77.02
2022-09-24T22:19:25.931Z,77.07
2022-09-24T22:21:54.031Z,77.15
2022-09-24T22:24:22.195Z,77.46
2022-09-24T22:26:50.438Z,77.55
2022-09-24T22:29:18.502Z,77.67
2022-09-24T22:31:46.210Z,78.15
2022-09-24T22:34:31.673Z,78.32
2022-09-24T22:37:01.273Z,78.56
2022-09-24T22:39:29.102Z,78.43
2022-09-24T22:41:57.076Z,78.66
2022-09-24T22:44:25.079Z,78.54
2022-09-24T22:46:52.706Z,78.63
2022-09-24T22:49:20.838Z,78.90
2022-09-24T22:51:48.840Z,78.67
2022-09-24T22:54:18.500Z,78.61
2022-09-24T22:56:46.417Z,78.70
2022-09-24T22:59:14.407Z,79.09
2022-09-24T23:01:44.470Z,79.42
2022-09-24T23:04:15.396Z,79.18
2022-09-24T23:06:44.494Z,79.17
2022-09-24T23:09:12.688Z,79.13
2022-09-24T23:11:42.034Z,79.15
2022-09-24T23:14:14.418Z,79.21
2022-09-24T23:16:43.877Z,78.67
2022-09-24T23:19:15.475Z,78.75
2022-09-24T23:21:44.009Z,78.65
2022-09-24T23:24:15.850Z,78.48
2022-09-24T23:26:45.808Z,78.49
2022-09-24T23:29:14.627Z,78.40
2022-09-24T23:31:42.313Z,78.18
2022-09-24T23:34:10.801Z,77.95
2022-09-24T23:36:39.276Z,78.09
2022-09-24T23:39:07.318Z,77.98
2022-09-24T23:41:35.317Z,78.28
2022-09-24T23:44:04.947Z,78.53
2022-09-24T23:46:33.981Z,78.19
2022-09-24T23:49:02.067Z,78.02
2022-09-24T23:51:29.956Z,78.13
2022-09-24T23:53:57.789Z,78.46
2022-09-24T23:56:25.856Z,78.42
2022-09-24T23:58:55.098Z,78.37
